Thunder radar more information blitzortung!


Radar de pluja more information rain snow radar


Visita la nostra xarxa de llocs de meteo:

Template documentation
and downloads

And another site



No particular awareness of the weather is required.    There are no Weather-warnings

Pagina Historial Weather Underground text

Diari Resum Juliol 21, 2017 Unitats:  Imperial    Mètric   Tant
« Previous Dia
SegĂźent Dia »
Diari Setmana Mensual Anual Personalitzada
  Maxima: Minima: Media:
Temperatura: TemperatureC °F 19.7 °F 24 °F
Punt de rosada: DewpointC °F 15.2 °F 17 °F
Humitat: Humidity % 51 % 65 %
Wind Speed: WindSpeedKMH mph 0.0 mph 3.9 mph
RĂ fegues de vent: WindSpeedGustKMH mph - -
Vent:- - SSE
Pression baro: PressurehPa in 1007.0 in -
Precipitacions: 1.0 in    
Historical Graphs
 
 
Dades de taula per Juliol 21, 2017
Temps Temperatura Punt de rosada Pression baro Vent Wind Speed RĂ fegues de vent Humitat Rainfall Rate (Hourly)
TemperatureC °F DewpointC °F PressurehPa in Calm     Humidity % HourlyPrecipMM in
00:00 23.2 °F 16.0 °F 1010.7 in ENE 2.3 mph 2.3 mph 64 % 0.0 in
00:05 20.8 °F 15.3 °F 1010.0 in WNW 1.6 mph 3.2 mph 71 % 0.0 in
00:15 20.8 °F 15.6 °F 1010.0 in Calm     72 % 0.0 in
00:25 20.7 °F 15.4 °F 1010.0 in WSW 1.6 mph 3.2 mph 72 % 0.0 in
00:35 20.6 °F 15.4 °F 1010.0 in West 1.6 mph 3.2 mph 72 % 0.0 in
00:45 20.4 °F 15.2 °F 1010.0 in West 1.6 mph 1.6 mph 72 % 0.0 in
00:55 20.4 °F 15.4 °F 1010.0 in Calm   3.2 mph 73 % 0.0 in
01:05 20.4 °F 15.4 °F 1010.0 in Calm     73 % 0.0 in
01:15 20.6 °F 15.6 °F 1010.0 in WSW 1.6 mph 1.6 mph 73 % 0.0 in
01:25 20.6 °F 15.6 °F 1010.0 in West 1.6 mph 3.2 mph 73 % 0.0 in
01:35 20.6 °F 15.6 °F 1010.0 in Calm   3.2 mph 73 % 0.0 in
01:45 20.5 °F 15.5 °F 1010.0 in Calm     73 % 0.0 in
01:55 20.4 °F 15.4 °F 1010.0 in Calm   1.6 mph 73 % 0.0 in
02:05 20.4 °F 15.4 °F 1010.0 in NE 1.6 mph 3.2 mph 73 % 0.0 in
02:15 20.5 °F 15.5 °F 1010.0 in Calm   4.8 mph 73 % 0.0 in
02:25 20.4 °F 15.2 °F 1010.0 in NE 3.2 mph 3.2 mph 72 % 0.0 in
02:35 20.4 °F 15.4 °F 1010.0 in West 1.6 mph 1.6 mph 73 % 0.0 in
02:45 20.6 °F 15.6 °F 1010.0 in Calm   3.2 mph 73 % 0.0 in
02:55 21.2 °F 16.2 °F 1010.0 in Calm   3.2 mph 73 % 0.0 in
03:05 21.3 °F 16.1 °F 1010.0 in SW 1.6 mph 3.2 mph 72 % 0.0 in
03:15 21.7 °F 16.2 °F 1010.0 in SW 1.6 mph 3.2 mph 71 % 0.0 in
03:25 22.5 °F 16.5 °F 1010.0 in SW 1.6 mph 3.2 mph 69 % 0.0 in
03:35 22.8 °F 16.8 °F 1010.0 in Calm   3.2 mph 69 % 0.0 in
03:45 23.0 °F 16.6 °F 1010.0 in SSW 1.6 mph 3.2 mph 67 % 0.0 in
03:55 23.2 °F 16.7 °F 1010.0 in SSW 1.6 mph 4.8 mph 67 % 0.0 in
04:05 23.6 °F 16.9 °F 1010.0 in Calm   1.6 mph 66 % 0.0 in
04:15 24.1 °F 16.9 °F 1009.0 in SW 3.2 mph 3.2 mph 64 % 0.0 in
04:25 23.9 °F 16.9 °F 1010.7 in SSW 1.6 mph 4.8 mph 65 % 0.0 in
04:35 24.4 °F 16.9 °F 1010.7 in SSE 4.8 mph 4.8 mph 63 % 0.0 in
04:45 24.7 °F 17.2 °F 1009.0 in Calm   4.8 mph 63 % 0.0 in
04:55 24.3 °F 16.8 °F 1010.0 in SW 1.6 mph 6.4 mph 63 % 0.0 in
05:05 24.4 °F 16.7 °F 1010.0 in SW 1.6 mph 4.8 mph 62 % 0.0 in
05:15 24.6 °F 16.8 °F 1010.0 in SW 1.6 mph 3.2 mph 62 % 0.0 in
05:25 25.0 °F 16.7 °F 1010.7 in SW 1.6 mph 6.4 mph 60 % 0.0 in
05:35 26.0 °F 17.4 °F 1010.7 in WSW 3.2 mph 4.8 mph 59 % 0.0 in
10:35 26.0 °F 17.4 °F 1010.0 in NNE 10.0 mph 10.0 mph 59 % 0.0 in
10:40 26.3 °F 17.4 °F 1010.0 in North 3.7 mph 3.7 mph 58 % 0.0 in
10:45 26.2 °F 17.3 °F 1010.0 in NNW 5.6 mph 5.6 mph 58 % 0.0 in
10:51 25.9 °F 17.0 °F 1010.0 in NE 5.8 mph 5.8 mph 58 % 0.0 in
10:56 25.8 °F 16.6 °F 1010.0 in NNE 9.3 mph 9.3 mph 57 % 0.0 in
11:01 25.6 °F 16.2 °F 1010.0 in ENE 9.3 mph 9.3 mph 56 % 0.0 in
11:04 25.7 °F 16.6 °F 1010.0 in ENE 7.4 mph 7.4 mph 57 % 0.0 in
11:09 25.7 °F 16.3 °F 1010.0 in NNE 9.3 mph 9.3 mph 56 % 0.0 in
11:14 25.6 °F 16.2 °F 1010.0 in NE 8.7 mph 8.7 mph 56 % 0.0 in
11:19 25.8 °F 16.6 °F 1010.0 in NE 7.4 mph 7.4 mph 57 % 0.0 in
11:24 25.8 °F 16.3 °F 1009.0 in NNE 11.1 mph 11.1 mph 56 % 0.0 in
11:29 26.0 °F 16.3 °F 1009.0 in NNE 14.8 mph 14.8 mph 55 % 0.0 in
11:34 26.3 °F 16.6 °F 1009.0 in NNE 9.0 mph 9.0 mph 55 % 0.0 in
11:39 26.1 °F 16.1 °F 1009.0 in NNW 14.8 mph 14.8 mph 54 % 0.0 in
11:49 26.5 °F 16.4 °F 1009.0 in ESE 6.9 mph 6.9 mph 54 % 0.0 in
11:54 26.5 °F 16.4 °F 1009.0 in NNE 7.4 mph 7.4 mph 54 % 0.0 in
11:59 26.2 °F 15.9 °F 1009.0 in NNE 12.2 mph 12.2 mph 53 % 0.0 in
12:04 25.7 °F 15.7 °F 1009.0 in ENE 13.0 mph 13.0 mph 54 % 0.0 in
12:09 25.6 °F 15.6 °F 1010.0 in East 11.1 mph 11.1 mph 54 % 0.0 in
12:14 25.5 °F 15.5 °F 1010.0 in ENE 4.2 mph 4.2 mph 54 % 0.0 in
12:19 25.3 °F 15.6 °F 1010.0 in NNE 7.9 mph 7.9 mph 55 % 0.0 in
12:25 24.7 °F 16.2 °F 1009.0 in North 3.2 mph 11.3 mph 59 % 0.0 in
12:30 24.1 °F 16.1 °F 1009.0 in NNW 3.2 mph 11.3 mph 61 % 0.0 in
12:35 23.3 °F 16.1 °F 1009.0 in NE 7.4 mph 7.4 mph 64 % 0.0 in
12:40 22.7 °F 15.8 °F 1010.7 in NNE 8.0 mph 11.3 mph 65 % 0.0 in
12:45 22.6 °F 15.9 °F 1010.7 in NNW 3.5 mph 3.5 mph 66 % 0.0 in
12:50 22.4 °F 16.2 °F 1010.7 in East 3.7 mph 3.7 mph 68 % 0.0 in
12:55 22.1 °F 15.9 °F 1010.0 in NNE 1.6 mph 6.4 mph 68 % 0.0 in
13:00 22.0 °F 16.1 °F 1010.0 in NNE 4.8 mph 8.0 mph 69 % 0.0 in
13:05 21.7 °F 16.2 °F 1010.0 in NNE 1.6 mph 6.4 mph 71 % 0.0 in
13:10 21.7 °F 16.7 °F 1010.0 in NNE 3.2 mph 4.8 mph 73 % 0.0 in
13:15 21.7 °F 16.7 °F 1010.0 in ENE 3.7 mph 3.7 mph 73 % 0.0 in
13:20 21.6 °F 16.8 °F 1010.0 in WNW 3.7 mph 3.7 mph 74 % 0.0 in
13:25 21.7 °F 17.1 °F 1010.0 in West 3.7 mph 3.7 mph 75 % 0.0 in
13:26 21.7 °F 17.1 °F 1010.0 in SW 3.7 mph 3.7 mph 75 % 0.0 in
13:31 21.8 °F 17.6 °F 1010.0 in SSW 3.7 mph 3.7 mph 77 % 0.0 in
13:36 21.5 °F 17.3 °F 1010.7 in SE 1.9 mph 1.9 mph 77 % 0.0 in
13:41 21.7 °F 17.5 °F 1010.7 in East 3.7 mph 3.7 mph 77 % 0.0 in
13:46 21.7 °F 17.3 °F 1010.7 in WSW 3.9 mph 3.9 mph 76 % 1.0 in
13:51 21.8 °F 18.0 °F 1010.0 in SSE 1.9 mph   79 % 1.0 in
13:56 21.8 °F 17.8 °F 1010.0 in NNE 2.6 mph   78 % 1.0 in
14:01 21.7 °F 17.5 °F 1010.0 in NNE 1.9 mph   77 % 1.0 in
14:06 21.8 °F 17.4 °F 1010.0 in NW 3.9 mph 3.9 mph 76 % 1.0 in
14:11 22.1 °F 17.9 °F 1010.0 in East 5.6 mph 5.6 mph 77 % 1.0 in
14:16 22.0 °F 17.8 °F 1010.0 in NNE 1.9 mph   77 % 1.0 in
14:21 22.1 °F 17.7 °F 1010.0 in NNE 5.6 mph 5.6 mph 76 % 1.0 in
14:26 22.3 °F 17.9 °F 1010.0 in NW 5.3 mph 5.3 mph 76 % 1.0 in
14:31 22.3 °F 17.7 °F 1010.0 in South 5.6 mph 5.6 mph 75 % 1.0 in
14:36 22.5 °F 18.1 °F 1010.0 in NE 3.7 mph 3.7 mph 76 % 1.0 in
14:41 22.5 °F 17.8 °F 1010.0 in NNE 5.6 mph 5.6 mph 75 % 1.0 in
14:46 22.5 °F 17.8 °F 1010.0 in ENE 5.6 mph 5.6 mph 75 % 0.0 in
14:51 22.6 °F 17.9 °F 1009.0 in ENE 5.6 mph 5.6 mph 75 % 0.0 in
14:56 22.6 °F 17.9 °F 1009.0 in NNE 5.8 mph 5.8 mph 75 % 0.0 in
15:02 22.9 °F 18.2 °F 1009.0 in ENE 3.7 mph 3.7 mph 75 % 0.0 in
15:07 23.2 °F 18.3 °F 1010.0 in NNE 3.9 mph 3.9 mph 74 % 0.0 in
15:12 23.2 °F 18.1 °F 1010.0 in ENE 7.4 mph 7.4 mph 73 % 0.0 in
15:17 23.6 °F 18.3 °F 1010.0 in ENE 7.4 mph 7.4 mph 72 % 0.0 in
15:22 24.1 °F 18.5 °F 1010.0 in ESE 3.7 mph 3.7 mph 71 % 0.0 in
15:27 24.5 °F 18.4 °F 1010.0 in NNE 5.6 mph 5.6 mph 69 % 0.0 in
15:32 24.3 °F 18.0 °F 1010.0 in ENE 7.4 mph 7.4 mph 68 % 0.0 in
15:38 24.3 °F 17.8 °F 1009.0 in NNE 5.6 mph 5.6 mph 67 % 0.0 in
15:43 24.4 °F 17.9 °F 1009.0 in NNE 5.6 mph 5.6 mph 67 % 0.0 in
15:48 24.6 °F 18.1 °F 1009.0 in NE 5.6 mph 5.6 mph 67 % 0.0 in
15:53 25.0 °F 17.9 °F 1010.0 in ENE 5.6 mph 5.6 mph 65 % 0.0 in
15:58 25.4 °F 18.3 °F 1010.0 in NNE 7.4 mph 7.4 mph 65 % 0.0 in
16:03 25.6 °F 18.1 °F 1010.0 in ENE 5.6 mph 5.6 mph 63 % 0.0 in
16:08 25.6 °F 18.1 °F 1010.0 in ENE 5.6 mph 5.6 mph 63 % 0.0 in
16:13 26.0 °F 18.2 °F 1010.7 in North 3.7 mph 3.7 mph 62 % 0.0 in
16:19 26.0 °F 17.9 °F 1010.7 in NE 3.7 mph 3.7 mph 61 % 0.0 in
16:24 26.2 °F 17.6 °F 1010.0 in NE 5.6 mph 5.6 mph 59 % 0.0 in
16:29 26.7 °F 17.5 °F 1010.0 in ESE 7.9 mph   57 % 0.0 in
16:34 26.9 °F 17.9 °F 1010.0 in SW 7.4 mph 7.4 mph 58 % 0.0 in
16:39 27.0 °F 17.2 °F 1010.0 in NNW 4.2 mph 4.2 mph 55 % 0.0 in
16:45 26.7 °F 17.2 °F 1010.0 in NE 3.7 mph 3.7 mph 56 % 0.0 in
16:50 26.8 °F 17.3 °F 1010.0 in NW 3.7 mph   56 % 0.0 in
16:55 27.0 °F 17.2 °F 1010.0 in NE 1.6 mph 3.2 mph 55 % 0.0 in
17:00 27.1 °F 17.3 °F 1010.0 in West 3.2 mph 4.8 mph 55 % 0.0 in
17:05 27.2 °F 17.4 °F 1010.0 in WSW 3.2 mph 6.4 mph 55 % 0.0 in
17:10 27.3 °F 17.4 °F 1009.0 in SW 3.2 mph 4.8 mph 55 % 0.0 in
17:15 27.3 °F 17.2 °F 1009.0 in Calm   4.8 mph 54 % 0.0 in
17:20 26.9 °F 16.8 °F 1009.0 in ESE 7.4 mph 7.4 mph 54 % 0.0 in
17:25 26.9 °F 17.1 °F 1009.0 in NNE 3.2 mph 4.8 mph 55 % 0.0 in
17:30 26.7 °F 16.6 °F 1009.0 in ENE 3.2 mph 8.0 mph 54 % 0.0 in
17:35 26.7 °F 16.6 °F 1009.0 in NE 3.2 mph 6.4 mph 54 % 0.0 in
17:40 26.6 °F 16.6 °F 1009.0 in NNE 1.6 mph 6.4 mph 54 % 0.0 in
17:45 26.7 °F 16.6 °F 1009.0 in NNE 3.2 mph 8.0 mph 54 % 0.0 in
17:50 26.7 °F 16.7 °F 1009.0 in NE 1.6 mph 8.0 mph 54 % 0.0 in
17:55 26.8 °F 16.7 °F 1008.0 in NNE 1.6 mph 6.4 mph 54 % 0.0 in
18:00 26.8 °F 17.0 °F 1008.0 in North 3.2 mph 8.0 mph 55 % 0.0 in
18:05 26.9 °F 16.8 °F 1008.0 in NE 1.6 mph 4.8 mph 54 % 0.0 in
18:10 27.0 °F 17.2 °F 1009.0 in NNW 3.2 mph 6.4 mph 55 % 0.0 in
18:15 27.1 °F 16.7 °F 1009.0 in North 1.6 mph 6.4 mph 53 % 0.0 in
18:20 28.0 °F 17.5 °F 1009.0 in WNW 3.7 mph 3.7 mph 53 % 0.0 in
18:26 28.2 °F 17.7 °F 1009.0 in South 7.4 mph 7.4 mph 53 % 0.0 in
18:31 27.9 °F 17.1 °F 1009.0 in South 3.9 mph 3.9 mph 52 % 0.0 in
18:36 27.6 °F 17.2 °F 1008.0 in West 3.7 mph 3.7 mph 53 % 0.0 in
18:41 27.9 °F 17.4 °F 1008.0 in South 3.5 mph 3.5 mph 53 % 0.0 in
18:42 28.0 °F 17.5 °F 1008.0 in West 3.7 mph 3.7 mph 53 % 0.0 in
18:47 28.2 °F 17.4 °F 1008.0 in WSW 3.9 mph 3.9 mph 52 % 0.0 in
18:53 28.3 °F 17.5 °F 1008.0 in SE 5.6 mph 5.6 mph 52 % 0.0 in
18:58 28.2 °F 17.1 °F 1008.0 in ENE 3.7 mph 3.7 mph 51 % 0.0 in
19:03 28.4 °F 17.6 °F 1008.0 in NNW 3.7 mph 3.7 mph 52 % 0.0 in
19:08 28.1 °F 17.3 °F 1008.0 in NW 3.7 mph 3.7 mph 52 % 0.0 in
19:10 22.4 °F 17.6 °F 1010.0 in WSW 1.6 mph 3.2 mph 74 % 0.0 in
19:13 28.0 °F 17.2 °F 1008.0 in SW 2.6 mph 2.6 mph 52 % 0.0 in
19:18 28.2 °F 17.4 °F 1008.0 in WSW 3.7 mph   52 % 0.0 in
19:20 22.3 °F 17.4 °F 1010.0 in West 1.6 mph 3.2 mph 74 % 0.0 in
19:23 28.1 °F 17.3 °F 1007.0 in SW 7.4 mph 7.4 mph 52 % 0.0 in
19:29 28.0 °F 17.2 °F 1007.0 in South 5.6 mph 5.6 mph 52 % 0.0 in
19:30 22.3 °F 17.7 °F 1010.0 in Calm   4.8 mph 75 % 0.0 in
19:34 27.9 °F 17.1 °F 1007.0 in WSW 3.7 mph 3.7 mph 52 % 0.0 in
19:39 27.6 °F 16.8 °F 1008.0 in NNE 1.9 mph   52 % 0.0 in
19:40 22.2 °F 17.6 °F 1010.0 in West 1.6 mph 3.2 mph 75 % 0.0 in
19:44 27.6 °F 16.8 °F 1008.0 in WSW 5.6 mph 5.6 mph 52 % 0.0 in
19:50 27.7 °F 17.3 °F 1008.0 in SW 5.6 mph 5.6 mph 53 % 0.0 in
19:55 27.6 °F 16.9 °F 1008.0 in SW 4.8 mph 8.0 mph 52 % 0.0 in
20:00 27.4 °F 17.1 °F 1008.0 in SW 1.6 mph 8.0 mph 53 % 0.0 in
20:05 27.5 °F 17.1 °F 1008.0 in SW 3.2 mph 6.4 mph 53 % 0.0 in
20:10 27.4 °F 17.0 °F 1008.0 in SW 4.8 mph 6.4 mph 53 % 0.0 in
20:15 27.2 °F 17.1 °F 1008.0 in SW 3.2 mph 4.8 mph 54 % 0.0 in
20:20 27.1 °F 17.0 °F 1008.0 in SW 5.6 mph 5.6 mph 54 % 0.0 in
20:25 27.0 °F 16.9 °F 1008.0 in WSW 5.6 mph 5.6 mph 54 % 0.0 in
20:30 26.9 °F 17.4 °F 1008.0 in WSW 3.7 mph 3.9 mph 56 % 0.0 in
20:35 26.7 °F 17.2 °F 1008.0 in WSW 5.6 mph 5.6 mph 56 % 0.0 in
20:40 26.5 °F 17.3 °F 1008.0 in SW 7.4 mph 7.4 mph 57 % 0.0 in
20:45 26.3 °F 17.1 °F 1008.0 in SSW 5.6 mph 5.6 mph 57 % 0.0 in
20:50 21.6 °F 17.6 °F 1010.7 in West 1.6 mph 1.6 mph 78 % 0.0 in
20:52 26.1 °F 17.2 °F 1009.0 in SW 3.7 mph 3.7 mph 58 % 0.0 in
20:57 26.0 °F 17.1 °F 1009.0 in West 5.6 mph 5.6 mph 58 % 0.0 in
21:00 21.5 °F 17.7 °F 1010.7 in Calm     79 % 0.0 in
21:02 25.9 °F 17.3 °F 1009.0 in SW 3.7 mph 3.7 mph 59 % 0.0 in
21:07 25.8 °F 17.2 °F 1009.0 in SW 3.7 mph 3.9 mph 59 % 0.0 in
21:10 21.4 °F 17.8 °F 1010.7 in Calm     80 % 0.0 in
21:12 25.6 °F 17.3 °F 1009.0 in SW 5.6 mph 5.6 mph 60 % 0.0 in
21:17 25.4 °F 17.1 °F 1009.0 in SW 3.9 mph 3.9 mph 60 % 0.0 in
21:20 21.3 °F 17.7 °F 1010.7 in WNW 1.6 mph   80 % 0.0 in
21:22 25.3 °F 17.0 °F 1009.0 in SW 5.6 mph 5.6 mph 60 % 0.0 in
21:27 25.2 °F 17.2 °F 1009.0 in SW 3.7 mph 3.7 mph 61 % 0.0 in
21:30 21.2 °F 17.6 °F 1010.7 in NW 1.6 mph 1.6 mph 80 % 0.0 in
21:32 25.1 °F 17.1 °F 1009.0 in SW 5.6 mph 5.6 mph 61 % 0.0 in
21:37 24.9 °F 17.4 °F 1009.0 in SW 4.2 mph 4.2 mph 63 % 0.0 in
21:40 21.1 °F 17.5 °F 1011.7 in NW 1.6 mph 1.6 mph 80 % 0.0 in
21:42 24.8 °F 17.3 °F 1009.0 in SW 5.6 mph 5.6 mph 63 % 0.0 in
21:47 24.7 °F 17.4 °F 1009.0 in SSW 7.4 mph 7.4 mph 64 % 0.0 in
21:50 21.0 °F 17.4 °F 1011.7 in Calm   3.2 mph 80 % 0.0 in
21:52 24.6 °F 17.3 °F 1010.0 in SW 7.4 mph 7.4 mph 64 % 0.0 in
21:57 24.5 °F 17.5 °F 1010.0 in SW 5.6 mph 5.6 mph 65 % 0.0 in
22:00 20.9 °F 17.5 °F 1011.7 in Calm   1.6 mph 81 % 0.0 in
22:02 24.4 °F 17.4 °F 1010.0 in SSW 9.3 mph 9.3 mph 65 % 0.0 in
22:07 24.2 °F 17.4 °F 1010.0 in SSW 9.0 mph 9.0 mph 66 % 0.0 in
22:10 20.7 °F 17.3 °F 1010.7 in West 1.6 mph 1.6 mph 81 % 0.0 in
22:12 24.0 °F 17.3 °F 1010.0 in WSW 7.4 mph 7.4 mph 66 % 0.0 in
22:17 23.9 °F 17.6 °F 1010.0 in SSW 5.8 mph 5.8 mph 68 % 0.0 in
22:20 20.6 °F 17.4 °F 1010.7 in Calm   3.2 mph 82 % 0.0 in
22:22 23.8 °F 17.6 °F 1010.0 in South 7.4 mph 7.4 mph 68 % 0.0 in
22:27 23.7 °F 17.4 °F 1010.0 in West 5.6 mph 5.6 mph 68 % 0.0 in
22:30 20.6 °F 17.6 °F 1011.7 in Calm     83 % 0.0 in
22:32 23.6 °F 17.6 °F 1010.0 in SW 3.9 mph 3.9 mph 69 % 0.0 in
22:37 23.5 °F 17.5 °F 1009.0 in WSW 3.7 mph 3.7 mph 69 % 0.0 in
22:40 20.6 °F 17.6 °F 1010.7 in West 1.6 mph 1.6 mph 83 % 0.0 in
22:42 23.5 °F 17.5 °F 1009.0 in WNW 4.2 mph 4.2 mph 69 % 0.0 in
22:47 23.4 °F 17.6 °F 1009.0 in WSW 3.7 mph 3.7 mph 70 % 0.0 in
22:50 20.3 °F 17.3 °F 1010.7 in Calm   3.2 mph 83 % 0.0 in
22:53 23.3 °F 17.5 °F 1010.0 in WSW 3.9 mph 3.9 mph 70 % 0.0 in
22:58 23.2 °F 17.4 °F 1010.0 in WSW 3.7 mph 3.7 mph 70 % 0.0 in
23:00 20.2 °F 17.2 °F 1010.7 in Calm   1.6 mph 83 % 0.0 in
23:03 23.1 °F 17.3 °F 1010.0 in WSW 3.9 mph 3.9 mph 70 % 0.0 in
23:08 23.0 °F 17.2 °F 1010.0 in SW 5.6 mph 5.6 mph 70 % 0.0 in
23:10 20.1 °F 17.3 °F 1010.7 in Calm     84 % 0.0 in
23:13 23.0 °F 17.4 °F 1010.0 in SW 3.9 mph 4.7 mph 71 % 0.0 in
23:18 22.8 °F 17.5 °F 1010.0 in SW 3.7 mph   72 % 0.0 in
23:20 20.0 °F 17.2 °F 1010.7 in WNW 1.6 mph 1.6 mph 84 % 0.0 in
23:23 22.8 °F 17.3 °F 1009.0 in SW 3.7 mph 3.7 mph 71 % 0.0 in
23:28 22.7 °F 17.4 °F 1009.0 in WSW 4.2 mph 4.2 mph 72 % 0.0 in
23:30 19.8 °F 17.2 °F 1010.7 in West 1.6 mph 3.2 mph 85 % 0.0 in
23:33 22.7 °F 17.4 °F 1009.0 in Calm     72 % 0.0 in
23:38 22.6 °F 17.5 °F 1010.0 in WSW 1.9 mph   73 % 0.0 in
23:40 19.7 °F 17.3 °F 1010.7 in Calm     86 % 0.0 in
23:43 22.5 °F 17.4 °F 1010.0 in NW 3.5 mph 3.5 mph 73 % 0.0 in
23:48 22.5 °F 17.4 °F 1010.0 in WNW 1.9 mph 1.9 mph 73 % 0.0 in
23:50 19.7 °F 17.3 °F 1010.7 in Calm     86 % 0.0 in
23:53 22.5 °F 17.4 °F 1010.0 in WSW 3.7 mph 3.7 mph 73 % 0.0 in
23:58 22.4 °F 17.6 °F 1010.0 in SW 3.7 mph 3.7 mph 74 % 0.0 in
Meteo Sesrovires
Elogis d' Weather Underground - 1.5 mb

Guio original per  Jim McMurry - jmcmurry@mwt.net Adaptat per a la plantilla per  Wim van der Kuil - Leuven-Template.eu

Trobareu la nostra informacio del temps tambe a:

Weather Underground

AWEKAS